createdAt,value
2024-03-15T00:01:42.701Z,84323.81
2024-03-15T00:04:11.988Z,84324.25
2024-03-15T00:06:39.733Z,84290.66
2024-03-15T00:09:07.243Z,84324.25
2024-03-15T00:11:34.833Z,84320.34
2024-03-15T00:14:02.648Z,84276.22
2024-03-15T00:16:30.247Z,84325.28
2024-03-15T00:18:59.548Z,84315.63
2024-03-15T00:21:27.873Z,84304.28
2024-03-15T00:23:55.733Z,84319.09
2024-03-15T00:26:23.214Z,84326.94
2024-03-15T00:28:50.578Z,84332.16
2024-03-15T00:31:18.807Z,84317.31
2024-03-15T00:33:46.957Z,84332.16
2024-03-15T00:36:19.046Z,84327.78
2024-03-15T00:38:46.741Z,84284.13
2024-03-15T00:41:14.362Z,84320.78
2024-03-15T00:43:41.976Z,84331.41
2024-03-15T00:46:10.259Z,84331.72
2024-03-15T00:48:38.037Z,84336.22
2024-03-15T00:51:05.841Z,84343.59
2024-03-15T00:53:33.351Z,84337.97
2024-03-15T00:56:00.924Z,84319.94
2024-03-15T00:58:28.468Z,84336.53
2024-03-15T01:00:56.145Z,84317.06
2024-03-15T01:03:26.865Z,84342.66
2024-03-15T01:05:58.462Z,84354.91
2024-03-15T01:08:27.604Z,84372.78
2024-03-15T01:10:56.872Z,84385.91
2024-03-15T01:13:24.507Z,84370.94
2024-03-15T01:15:51.957Z,84363.16
2024-03-15T01:18:19.611Z,84352.06
2024-03-15T01:20:47.145Z,84344.56
2024-03-15T01:23:14.777Z,84344.69
2024-03-15T01:25:42.189Z,84329.88
2024-03-15T01:28:09.780Z,84340.28
2024-03-15T01:30:37.182Z,84333.84
2024-03-15T01:33:05.103Z,84330.31
2024-03-15T01:35:36.299Z,84335.97
2024-03-15T01:38:04.777Z,84335.22
2024-03-15T01:40:33.213Z,84331.94
2024-03-15T01:43:01.583Z,84338.34
2024-03-15T01:45:29.803Z,84338.13
2024-03-15T01:47:58.498Z,84344.72
2024-03-15T01:50:28.281Z,84336.19
2024-03-15T01:52:57.563Z,84349.78
2024-03-15T01:55:25.873Z,84347.78
2024-03-15T01:57:53.639Z,84348.69
2024-03-15T02:00:22.051Z,84334.81
2024-03-15T02:02:50.089Z,84352.25
2024-03-15T02:05:17.409Z,84344.38
2024-03-15T02:07:45.063Z,84357.75
2024-03-15T02:10:15.052Z,84364.22
2024-03-15T02:12:43.666Z,84361.75
2024-03-15T02:15:12.010Z,84351.91
2024-03-15T02:17:43.728Z,84347.56
2024-03-15T02:20:16.937Z,84337.84
2024-03-15T02:22:45.795Z,84325.19
2024-03-15T02:25:14.389Z,84324.91
2024-03-15T02:27:41.956Z,84335.34
2024-03-15T02:30:10.945Z,84338.25
2024-03-15T02:32:40.149Z,84335.22
2024-03-15T02:35:20.026Z,84338.25
2024-03-15T02:37:53.879Z,84340.56
2024-03-15T02:40:21.665Z,84347.97
2024-03-15T02:42:49.625Z,84343.59
2024-03-15T02:45:18.716Z,84335.78
2024-03-15T02:47:46.456Z,84344.34
2024-03-15T02:50:14.046Z,84347.81
2024-03-15T02:52:41.723Z,84321.88
2024-03-15T02:55:09.532Z,84347.63
2024-03-15T02:57:37.121Z,84355.03
2024-03-15T03:00:05.376Z,84363.06
2024-03-15T03:02:35.035Z,84376.50
2024-03-15T03:05:02.737Z,84354.22
2024-03-15T03:07:31.802Z,84365.53
2024-03-15T03:09:59.504Z,84375.78
2024-03-15T03:12:27.695Z,84374.34
2024-03-15T03:14:55.427Z,84373.72
2024-03-15T03:17:23.200Z,84370.44
2024-03-15T03:19:51.247Z,84378.44
2024-03-15T03:22:19.139Z,84369.28
2024-03-15T03:24:48.090Z,84386.22
2024-03-15T03:27:16.145Z,84380.81
2024-03-15T03:29:44.026Z,84372.81
2024-03-15T03:32:13.207Z,84385.97
2024-03-15T03:34:41.665Z,84358.84
2024-03-15T03:37:09.526Z,84378.25
2024-03-15T03:39:37.355Z,84376.22
2024-03-15T03:42:06.767Z,84364.59
2024-03-15T03:44:34.570Z,84367.59
2024-03-15T03:47:05.149Z,84379.03
2024-03-15T03:49:32.899Z,84376.13
2024-03-15T03:52:00.488Z,84376.56
2024-03-15T03:54:28.701Z,84365.09
2024-03-15T03:56:56.318Z,84371.81
2024-03-15T03:59:24.628Z,84368.59
2024-03-15T04:01:52.351Z,84367.75
2024-03-15T04:04:23.019Z,84370.66
2024-03-15T04:06:53.941Z,84361.69
2024-03-15T04:09:22.838Z,84359.81
2024-03-15T04:11:50.843Z,84356.84
2024-03-15T04:14:18.732Z,84350.66
2024-03-15T04:16:46.498Z,84360.56
2024-03-15T04:19:15.350Z,84320.56
2024-03-15T04:21:46.545Z,84318.13
2024-03-15T04:24:14.183Z,84351.47
2024-03-15T04:26:41.807Z,84349.28
2024-03-15T04:29:10.003Z,84356.06
2024-03-15T04:31:37.511Z,84355.97
2024-03-15T04:34:05.256Z,84348.41
2024-03-15T04:36:32.938Z,84350.66
2024-03-15T04:39:00.845Z,84356.03
2024-03-15T04:41:29.105Z,84345.34
2024-03-15T04:43:57.762Z,84304.44
2024-03-15T04:46:25.329Z,84344.25
2024-03-15T04:48:53.259Z,84364.34
2024-03-15T04:51:21.793Z,84364.22
2024-03-15T04:53:50.335Z,84356.56
2024-03-15T04:56:18.655Z,84371.53
2024-03-15T04:58:47.480Z,84363.09
2024-03-15T05:01:15.778Z,84368.06
2024-03-15T05:03:44.355Z,84355.69
2024-03-15T05:06:17.105Z,84366.91
2024-03-15T05:08:57.687Z,84373.00
2024-03-15T05:11:32.394Z,84377.53
2024-03-15T05:14:00.196Z,84381.75
2024-03-15T05:16:28.091Z,84370.56
2024-03-15T05:18:58.277Z,84366.78
2024-03-15T05:21:25.987Z,84388.19
2024-03-15T05:23:53.975Z,84380.47
2024-03-15T05:26:22.308Z,84396.63
2024-03-15T05:28:50.493Z,84388.47
2024-03-15T05:31:25.414Z,84391.81
2024-03-15T05:33:53.007Z,84340.59
2024-03-15T05:36:20.623Z,84386.16
2024-03-15T05:38:48.585Z,84377.25
2024-03-15T05:41:17.532Z,84370.63
2024-03-15T05:43:45.710Z,84364.88
2024-03-15T05:46:13.644Z,84359.25
2024-03-15T05:48:41.608Z,84363.41
2024-03-15T05:51:09.464Z,84364.56
2024-03-15T05:53:37.042Z,84352.06
2024-03-15T05:56:05.235Z,84348.13
2024-03-15T05:58:33.171Z,84350.69
2024-03-15T06:01:01.075Z,84338.94
2024-03-15T06:03:29.313Z,84343.88
2024-03-15T06:05:56.881Z,84337.72
2024-03-15T06:08:28.227Z,84337.63
2024-03-15T06:10:56.015Z,84338.03
2024-03-15T06:13:23.628Z,84335.34
2024-03-15T06:15:51.577Z,84344.88
2024-03-15T06:18:19.541Z,84335.63
2024-03-15T06:20:48.801Z,84340.34
2024-03-15T06:23:17.741Z,84335.44
2024-03-15T06:25:45.718Z,84342.25
2024-03-15T06:28:15.208Z,84349.69
2024-03-15T06:30:48.398Z,84351.88
2024-03-15T06:33:17.505Z,84335.91
2024-03-15T06:35:52.061Z,84341.06
2024-03-15T06:38:32.165Z,84327.56
2024-03-15T06:41:15.307Z,84319.19
2024-03-15T06:43:43.993Z,84322.28
2024-03-15T06:46:22.196Z,84293.03
2024-03-15T06:48:59.964Z,84296.72
2024-03-15T06:51:47.518Z,84301.69
2024-03-15T06:54:16.752Z,84304.56
2024-03-15T06:56:45.472Z,84304.06
2024-03-15T06:59:13.230Z,84301.53
2024-03-15T07:01:41.457Z,84308.91
2024-03-15T07:04:11.946Z,84305.53
2024-03-15T07:06:39.709Z,84305.63
2024-03-15T07:09:16.423Z,84297.56
2024-03-15T07:11:49.584Z,84256.97
2024-03-15T07:14:17.745Z,84294.50
2024-03-15T07:16:45.499Z,84287.66
2024-03-15T07:19:15.258Z,84289.44
2024-03-15T07:21:44.578Z,84285.78
2024-03-15T07:24:12.106Z,84277.19
2024-03-15T07:26:40.856Z,84271.09
2024-03-15T07:29:09.285Z,84272.63
2024-03-15T07:31:37.207Z,84263.16
2024-03-15T07:34:05.646Z,84262.91
2024-03-15T07:36:34.123Z,84241.56
2024-03-15T07:39:02.031Z,84253.91
2024-03-15T07:41:33.645Z,84250.38
2024-03-15T07:44:02.512Z,84257.16
2024-03-15T07:46:30.417Z,84254.69
2024-03-15T07:48:59.526Z,84247.19
2024-03-15T07:51:27.388Z,84245.78
2024-03-15T07:53:54.849Z,84248.88
2024-03-15T07:56:23.552Z,84243.38
2024-03-15T07:58:54.432Z,84243.16
2024-03-15T08:01:22.822Z,84239.06
2024-03-15T08:03:50.831Z,84237.44
2024-03-15T08:06:19.576Z,84230.75
2024-03-15T08:08:48.293Z,84231.03
2024-03-15T08:11:16.116Z,84216.38
2024-03-15T08:13:43.868Z,84231.06
2024-03-15T08:16:20.888Z,84216.56
2024-03-15T08:18:50.656Z,84217.53
2024-03-15T08:21:19.265Z,84221.44
2024-03-15T08:23:47.272Z,84201.28
2024-03-15T08:26:15.094Z,84200.81
2024-03-15T08:28:42.774Z,84201.31
2024-03-15T08:31:11.605Z,84203.94
2024-03-15T08:33:39.502Z,84199.63
2024-03-15T08:36:07.736Z,84195.75
2024-03-15T08:38:35.663Z,84203.00
2024-03-15T08:41:04.143Z,84197.19
2024-03-15T08:43:32.664Z,84188.06
2024-03-15T08:46:00.676Z,84192.63
2024-03-15T08:48:32.394Z,84189.22
2024-03-15T08:51:00.349Z,84194.25
2024-03-15T08:53:28.119Z,84180.47
2024-03-15T08:55:55.950Z,84185.91
2024-03-15T08:58:23.611Z,84181.72
2024-03-15T09:00:51.586Z,84177.91
2024-03-15T09:03:20.403Z,84167.78
2024-03-15T12:12:14.057Z,84077.56
2024-03-15T12:14:43.184Z,84076.50
2024-03-15T12:17:15.847Z,84078.97
2024-03-15T12:19:44.330Z,84078.28
2024-03-15T12:22:12.171Z,84070.19
2024-03-15T12:24:40.361Z,84062.38
2024-03-15T12:27:11.879Z,84052.34
2024-03-15T12:29:39.643Z,84048.31
2024-03-15T12:32:07.569Z,84039.72
2024-03-15T12:34:35.325Z,84052.28
2024-03-15T12:37:03.532Z,84042.84
2024-03-15T12:39:31.573Z,84043.03
2024-03-15T12:41:58.897Z,84027.91
2024-03-15T12:44:26.663Z,84017.88
2024-03-15T12:46:54.493Z,84012.72
2024-03-15T12:49:22.321Z,84006.00
2024-03-15T12:51:50.038Z,83997.66
2024-03-15T12:54:18.156Z,84002.69
2024-03-15T12:56:48.096Z,83992.56
2024-03-15T12:59:15.772Z,83981.50
2024-03-15T13:01:43.485Z,83992.03
2024-03-15T13:04:11.268Z,83995.53
2024-03-15T13:06:42.872Z,83995.09
2024-03-15T13:09:10.712Z,83986.72
2024-03-15T13:11:38.320Z,83985.97
2024-03-15T13:14:06.047Z,83991.84
2024-03-15T13:16:33.764Z,83984.47
2024-03-15T13:19:01.500Z,83989.78
2024-03-15T13:21:29.377Z,83978.78
2024-03-15T13:23:58.024Z,83982.31
2024-03-15T13:26:26.288Z,83981.16
2024-03-15T13:28:57.056Z,83979.00
2024-03-15T13:31:25.426Z,83971.63
2024-03-15T13:33:53.221Z,83973.06
2024-03-15T13:36:21.405Z,83977.19
2024-03-15T13:38:49.164Z,83972.38
2024-03-15T13:41:17.009Z,83962.78
2024-03-15T13:43:44.815Z,83968.78
2024-03-15T13:46:15.310Z,83964.88
2024-03-15T13:48:45.565Z,83956.47
2024-03-15T13:51:14.476Z,83960.41
2024-03-15T13:53:46.215Z,83957.13
2024-03-15T13:56:15.447Z,83960.09
2024-03-15T13:58:45.356Z,83964.19
2024-03-15T14:01:16.180Z,83955.72
2024-03-15T14:03:44.897Z,83947.53
2024-03-15T14:06:12.474Z,83950.88
2024-03-15T14:08:40.295Z,83949.66
2024-03-15T14:11:10.642Z,83960.78
2024-03-15T14:13:38.591Z,83955.06
2024-03-15T14:16:06.611Z,83954.84
2024-03-15T14:18:34.802Z,83971.97
2024-03-15T14:21:02.348Z,83967.19
2024-03-15T14:23:30.343Z,83977.28
2024-03-15T14:25:57.860Z,83972.47
2024-03-15T14:28:25.567Z,83973.38
2024-03-15T14:30:57.696Z,83987.34
2024-03-15T14:33:26.001Z,84017.84
2024-03-15T14:35:56.839Z,84013.25
2024-03-15T14:38:27.099Z,84004.31
2024-03-15T14:40:57.845Z,84016.47
2024-03-15T14:43:25.480Z,83985.16
2024-03-15T14:45:53.604Z,83987.78
2024-03-15T14:48:21.925Z,83981.94
2024-03-15T14:50:52.745Z,83974.88
2024-03-15T14:53:22.397Z,83973.63
2024-03-15T14:55:52.126Z,83970.03
2024-03-15T14:58:19.596Z,83977.94
2024-03-15T15:00:50.803Z,83969.53
2024-03-15T15:03:24.345Z,83957.31
2024-03-15T15:05:53.002Z,83950.56
2024-03-15T15:08:23.585Z,83937.63
2024-03-15T15:10:52.733Z,83936.41
2024-03-15T15:13:21.685Z,83937.16
2024-03-15T15:15:52.430Z,83939.78
2024-03-15T15:18:20.395Z,83938.81
2024-03-15T15:20:51.358Z,83933.75
2024-03-15T15:23:19.795Z,83925.84
2024-03-15T15:25:47.604Z,83925.03
2024-03-15T15:28:16.149Z,83922.16
2024-03-15T15:30:44.088Z,83916.63
2024-03-15T15:33:11.892Z,83927.19
2024-03-15T15:35:39.699Z,83932.94
2024-03-15T15:38:09.285Z,83925.03
2024-03-15T15:40:39.323Z,83929.13
2024-03-15T15:43:08.387Z,83964.16
2024-03-15T15:45:36.432Z,84010.91
2024-03-15T15:48:06.955Z,84032.28
2024-03-15T15:50:35.452Z,84040.47
2024-03-15T15:53:03.078Z,84013.34
2024-03-15T15:55:32.244Z,84017.59
2024-03-15T15:58:00.578Z,84055.63
2024-03-15T16:00:28.717Z,84064.25
2024-03-15T16:02:57.532Z,84038.75
2024-03-15T16:05:26.444Z,84045.22
2024-03-15T16:07:55.635Z,84036.44
2024-03-15T16:10:23.571Z,84024.59
2024-03-15T16:12:51.283Z,84015.91
2024-03-15T16:15:19.316Z,84012.91
2024-03-15T16:17:47.251Z,84005.81
2024-03-15T16:20:14.936Z,84018.50
2024-03-15T16:22:45.486Z,84020.47
2024-03-15T16:25:13.393Z,84016.69
2024-03-15T16:27:41.309Z,84018.25
2024-03-15T16:30:09.413Z,84028.09
2024-03-15T16:32:37.859Z,84019.84
2024-03-15T16:35:08.235Z,84020.66
2024-03-15T16:37:36.722Z,84025.25
2024-03-15T16:40:08.814Z,84023.03
2024-03-15T16:42:39.793Z,84029.81
2024-03-15T16:45:07.625Z,84036.94
2024-03-15T16:47:35.866Z,84033.59
2024-03-15T16:50:08.460Z,84039.22
2024-03-15T16:52:37.864Z,84039.66
2024-03-15T16:55:06.705Z,84032.44
2024-03-15T16:57:37.571Z,84048.66
2024-03-15T17:00:15.665Z,84059.97
2024-03-15T17:02:47.474Z,84060.59
2024-03-15T17:05:16.331Z,84066.56
2024-03-15T17:07:44.029Z,84080.97
2024-03-15T17:10:12.815Z,84099.00
2024-03-15T17:12:41.422Z,84111.41
2024-03-15T17:15:11.023Z,84099.72
2024-03-15T17:17:38.725Z,84093.81
2024-03-15T17:20:06.865Z,84089.72
2024-03-15T17:22:34.414Z,84095.31
2024-03-15T17:25:02.167Z,84064.31
2024-03-15T17:27:30.400Z,84036.91
2024-03-15T17:30:00.997Z,84024.69
2024-03-15T17:32:30.941Z,84038.59
2024-03-15T17:34:58.634Z,84044.13
2024-03-15T17:37:26.458Z,84047.56
2024-03-15T17:39:55.093Z,84051.00
2024-03-15T17:42:23.953Z,84068.13
2024-03-15T17:44:51.861Z,84070.13
2024-03-15T17:47:19.891Z,84074.91
2024-03-15T17:49:47.505Z,84070.56
2024-03-15T17:52:15.388Z,84074.28
2024-03-15T17:54:43.209Z,84076.63
2024-03-15T17:57:11.198Z,84072.66
2024-03-15T17:59:39.034Z,84077.91
2024-03-15T18:02:10.734Z,84068.31
2024-03-15T18:04:38.721Z,84067.66
2024-03-15T18:07:06.622Z,84065.94
2024-03-15T18:09:35.783Z,84063.88
2024-03-15T18:12:03.494Z,84075.38
2024-03-15T18:14:31.054Z,84062.84
2024-03-15T18:16:58.423Z,84058.69
2024-03-15T18:19:28.653Z,84051.09
2024-03-15T18:21:56.183Z,84059.16
2024-03-15T18:24:24.146Z,84055.25
2024-03-15T18:26:51.670Z,84056.97
2024-03-15T18:29:19.702Z,84047.75
2024-03-15T18:31:47.410Z,84047.09
2024-03-15T18:34:15.253Z,84050.56
2024-03-15T18:36:43.177Z,84047.31
2024-03-15T18:39:10.693Z,84045.13
2024-03-15T18:41:38.194Z,84035.44
2024-03-15T18:44:05.887Z,84038.88
2024-03-15T18:46:34.625Z,84041.31
2024-03-15T18:49:02.226Z,84041.59
2024-03-15T18:51:29.872Z,84044.03
2024-03-15T18:53:57.630Z,84049.41
2024-03-15T18:56:25.120Z,84042.94
2024-03-15T18:58:54.206Z,84055.34
2024-03-15T19:01:22.115Z,84060.34
2024-03-15T19:03:51.095Z,84058.63
2024-03-15T19:06:19.096Z,84052.56
2024-03-15T19:08:49.063Z,84059.16
2024-03-15T19:11:17.842Z,84054.38
2024-03-15T19:13:46.864Z,84047.66
2024-03-15T19:16:15.047Z,84032.63
2024-03-15T19:18:42.755Z,84024.31
2024-03-15T19:21:10.499Z,84030.63
2024-03-15T19:23:38.837Z,84037.03
2024-03-15T19:26:07.491Z,84039.97
2024-03-15T19:28:35.254Z,84039.31
2024-03-15T19:31:03.537Z,84035.78
2024-03-15T19:33:31.410Z,84022.41
2024-03-15T19:35:59.156Z,84032.44
2024-03-15T19:38:26.743Z,84023.84
2024-03-15T19:40:54.290Z,84025.03
2024-03-15T19:43:25.228Z,84011.09
2024-03-15T19:45:53.456Z,83995.41
2024-03-15T19:48:22.644Z,83985.81
2024-03-15T19:50:50.661Z,83994.28
2024-03-15T19:53:18.835Z,83992.88
2024-03-15T19:55:49.556Z,83995.41
2024-03-15T19:58:17.218Z,83994.25
2024-03-15T20:00:45.161Z,83998.09
2024-03-15T20:03:17.247Z,83989.59
2024-03-15T20:05:45.216Z,83987.25
2024-03-15T20:08:13.517Z,83981.88
2024-03-15T20:10:41.868Z,83981.56
2024-03-15T20:13:09.642Z,83977.47
2024-03-15T20:15:37.777Z,83987.16
2024-03-15T20:18:07.009Z,83988.88
2024-03-15T20:20:34.548Z,83987.81
2024-03-15T20:23:02.632Z,83998.50
2024-03-15T20:25:30.261Z,83988.91
2024-03-15T20:27:58.490Z,83983.41
2024-03-15T20:30:26.848Z,83990.66
2024-03-15T20:32:55.090Z,84001.16
2024-03-15T20:35:24.796Z,83989.09
2024-03-15T20:37:52.340Z,83973.25
2024-03-15T20:40:21.507Z,84005.03
2024-03-15T20:42:49.420Z,84006.41
2024-03-15T20:45:17.324Z,83995.91
2024-03-15T20:47:45.197Z,84016.69
2024-03-15T20:50:13.457Z,84026.81
2024-03-15T20:52:40.987Z,84030.22
2024-03-15T20:55:08.898Z,84024.41
2024-03-15T20:57:36.813Z,84029.78
2024-03-15T21:00:05.107Z,84025.47
2024-03-15T21:02:32.852Z,84027.16
2024-03-15T21:05:00.465Z,84027.56
2024-03-15T21:07:28.056Z,84003.56
2024-03-15T21:09:56.132Z,83987.28
2024-03-15T21:12:28.611Z,83975.31
2024-03-15T21:14:56.527Z,83968.75
2024-03-15T21:17:24.184Z,83959.66
2024-03-15T21:19:53.636Z,83954.28
2024-03-15T21:22:21.315Z,83957.41
2024-03-15T21:24:52.431Z,83961.13
2024-03-15T21:27:22.421Z,83965.75
2024-03-15T21:29:50.628Z,83965.09
2024-03-15T21:32:19.522Z,83951.19
2024-03-15T21:34:47.404Z,83969.75
2024-03-15T21:37:15.601Z,83965.41
2024-03-15T21:39:43.475Z,83975.16
2024-03-15T21:42:11.157Z,83975.16
2024-03-15T21:44:43.559Z,83976.16
2024-03-15T21:47:11.273Z,83983.38
2024-03-15T21:49:39.057Z,83992.34
2024-03-15T21:52:06.808Z,83994.34
2024-03-15T21:54:34.447Z,83993.19
2024-03-15T21:57:01.984Z,84000.13
2024-03-15T21:59:30.061Z,83992.28
2024-03-15T22:01:58.169Z,84001.31
2024-03-15T22:04:31.858Z,84009.66
2024-03-15T22:06:59.814Z,84000.31
2024-03-15T22:09:28.189Z,84007.19
2024-03-15T22:11:56.206Z,84001.66
2024-03-15T22:14:23.812Z,84000.22
2024-03-15T22:16:51.435Z,84005.72
2024-03-15T22:19:18.940Z,84003.84
2024-03-15T22:21:46.504Z,84000.50
2024-03-15T22:24:13.942Z,84008.81
2024-03-15T22:26:42.001Z,84008.09
2024-03-15T22:29:10.732Z,84022.38
2024-03-15T22:31:38.625Z,84026.16
2024-03-15T22:34:06.869Z,84026.53
2024-03-15T22:36:34.856Z,84021.63
2024-03-15T22:39:02.224Z,84023.34
2024-03-15T22:41:30.062Z,84027.44
2024-03-15T22:43:57.785Z,84024.16
2024-03-15T22:46:25.551Z,84018.34
2024-03-15T22:48:53.308Z,84018.97
2024-03-15T22:51:20.882Z,84020.13
2024-03-15T22:53:48.298Z,84009.66
2024-03-15T22:56:15.930Z,84010.66
2024-03-15T22:58:43.575Z,84002.34
2024-03-15T23:01:13.280Z,83999.56
2024-03-15T23:03:47.339Z,84010.78
2024-03-15T23:06:16.197Z,84002.34
2024-03-15T23:08:44.088Z,83999.56
2024-03-15T23:11:11.862Z,83992.88
2024-03-15T23:13:40.403Z,83996.66
2024-03-15T23:16:09.459Z,83969.91
2024-03-15T23:18:37.161Z,83973.59
2024-03-15T23:21:05.247Z,83986.59
2024-03-15T23:23:33.390Z,83989.97
2024-03-15T23:26:01.132Z,83989.16
2024-03-15T23:28:28.626Z,83985.19
2024-03-15T23:30:57.695Z,83984.69
2024-03-15T23:33:26.979Z,83984.72
2024-03-15T23:35:55.017Z,83994.19
2024-03-15T23:38:23.004Z,83995.66
2024-03-15T23:40:50.659Z,84001.16
2024-03-15T23:43:20.462Z,83987.91
2024-03-15T23:45:48.374Z,83975.16
2024-03-15T23:48:28.215Z,83988.91
2024-03-15T23:50:56.484Z,83982.09
2024-03-15T23:53:24.046Z,83974.16
2024-03-15T23:55:51.776Z,83972.97
2024-03-15T23:58:19.885Z,83976.31
